Time;durP1;ratioP1;P1;durP2;ratioP2;P2;SDS_P1;SDS_P2;PMS_P1;PMS_P2;Temp;Humidity;BMP_temperature;BMP_pressure;BME280_temperature;BME280_humidity;BME280_pressure;Samples;Min_cycle;Max_cycle;Signal;HPM_P1;HPM_P2
2022/07/25 00:00:55;;;;;;;14.80;13.70;;;22.50;99.90;;;;;;4994543;28;20219;-52
2022/07/25 00:03:21;;;;;;;15.00;13.90;;;22.50;99.90;;;;;;4995001;28;20665;-52
2022/07/25 00:05:50;;;;;;;15.20;14.13;;;22.50;99.90;;;;;;4995397;28;20227;-52
2022/07/25 00:08:18;;;;;;;14.47;13.27;;;22.40;99.90;;;;;;4994112;28;20225;-51
2022/07/25 00:10:45;;;;;;;15.13;13.93;;;22.40;99.90;;;;;;4994025;28;20207;-52
2022/07/25 00:13:12;;;;;;;13.63;12.70;;;22.40;99.90;;;;;;4995341;28;20254;-52
2022/07/25 00:15:39;;;;;;;15.57;14.27;;;22.40;99.90;;;;;;4994960;28;20262;-52
2022/07/25 00:18:06;;;;;;;15.03;13.93;;;22.40;99.90;;;;;;4995242;28;20243;-52
2022/07/25 00:20:33;;;;;;;16.93;15.53;;;22.40;99.90;;;;;;4993707;28;20691;-52
2022/07/25 00:23:01;;;;;;;17.57;16.07;;;22.40;99.90;;;;;;4993492;28;20653;-52
2022/07/25 00:25:28;;;;;;;17.33;16.03;;;22.40;99.90;;;;;;4994589;28;20307;-52
2022/07/25 00:27:55;;;;;;;16.30;15.07;;;22.40;99.90;;;;;;4995002;28;20247;-52
2022/07/25 00:30:22;;;;;;;16.67;15.33;;;22.40;99.90;;;;;;4994873;28;20200;-52
2022/07/25 00:32:49;;;;;;;16.53;15.33;;;22.40;99.90;;;;;;4993426;28;20250;-52
2022/07/25 00:35:16;;;;;;;15.40;14.20;;;22.40;99.90;;;;;;4991123;28;20216;-52
2022/07/25 00:37:43;;;;;;;15.87;14.77;;;22.40;99.90;;;;;;4993615;28;20628;-51
2022/07/25 00:40:12;;;;;;;17.27;15.87;;;22.40;99.90;;;;;;4993988;28;20269;-52
2022/07/25 00:42:39;;;;;;;17.17;15.80;;;22.40;99.90;;;;;;4993719;28;20204;-52
2022/07/25 00:45:07;;;;;;;15.47;14.30;;;22.40;99.90;;;;;;4993060;28;20305;-52
2022/07/25 00:47:34;;;;;;;15.93;14.67;;;22.40;99.90;;;;;;4992468;28;20578;-52
2022/07/25 00:50:01;;;;;;;16.57;15.07;;;22.40;99.90;;;;;;4993503;28;20680;-52
2022/07/25 00:52:29;;;;;;;15.73;14.53;;;22.40;99.90;;;;;;4993733;28;20208;-52
2022/07/25 00:54:56;;;;;;;16.03;14.83;;;22.30;99.90;;;;;;4994068;28;20223;-52
2022/07/25 00:57:25;;;;;;;16.40;14.90;;;22.30;99.90;;;;;;4994392;28;20204;-52
2022/07/25 01:03:14;;;;;;;17.57;15.87;;;22.30;99.90;;;;;;4988476;28;20610;-52
2022/07/25 01:05:41;;;;;;;15.57;14.37;;;22.30;99.90;;;;;;4992706;28;20239;-51
2022/07/25 01:08:08;;;;;;;16.17;14.97;;;22.30;99.90;;;;;;4994059;28;20211;-52
2022/07/25 01:10:36;;;;;;;15.53;14.30;;;22.20;99.90;;;;;;4994256;28;20211;-53
2022/07/25 01:13:05;;;;;;;14.90;13.73;;;22.20;99.90;;;;;;4992607;28;20252;-53
2022/07/25 01:15:32;;;;;;;15.60;14.17;;;22.10;99.90;;;;;;4991024;28;20274;-53
2022/07/25 01:17:59;;;;;;;15.90;14.43;;;22.10;99.90;;;;;;4991753;28;20657;-53
2022/07/25 01:20:29;;;;;;;15.70;14.50;;;22.10;99.90;;;;;;4993354;28;20644;-53
2022/07/25 01:22:56;;;;;;;16.70;15.37;;;22.10;99.90;;;;;;4993382;28;20231;-53
2022/07/25 01:59:05;;;;;;;17.07;15.57;;;21.80;99.90;;;;;;4981338;28;20271;-52
2022/07/25 02:01:32;;;;;;;17.70;16.00;;;21.70;99.90;;;;;;4993453;28;20262;-52
2022/07/25 02:03:59;;;;;;;18.07;16.67;;;21.70;99.90;;;;;;4991771;28;21038;-52
2022/07/25 02:06:26;;;;;;;17.30;15.90;;;21.60;99.90;;;;;;4992796;28;20643;-52
2022/07/25 02:08:53;;;;;;;16.33;14.97;;;21.60;99.90;;;;;;4993236;28;20747;-52
2022/07/25 02:11:20;;;;;;;16.47;14.97;;;21.60;99.90;;;;;;4991094;28;20210;-52
2022/07/25 02:13:47;;;;;;;16.73;15.30;;;21.60;99.90;;;;;;4992683;28;20235;-52
2022/07/25 02:16:15;;;;;;;16.77;15.50;;;21.60;99.90;;;;;;4992086;28;20220;-52
2022/07/25 02:18:42;;;;;;;16.03;14.73;;;21.60;99.90;;;;;;4992123;28;20258;-52
2022/07/25 02:21:09;;;;;;;15.80;14.70;;;21.50;99.90;;;;;;4989845;28;20301;-52
2022/07/25 02:23:36;;;;;;;17.03;15.83;;;21.60;99.90;;;;;;4991940;28;20204;-53
2022/07/25 02:26:04;;;;;;;17.07;15.77;;;21.50;99.90;;;;;;4989996;28;20637;-52
2022/07/25 02:28:31;;;;;;;16.67;15.33;;;21.60;99.90;;;;;;4985213;28;20266;-52
2022/07/25 02:30:58;;;;;;;16.43;15.10;;;21.70;99.90;;;;;;4990511;28;20627;-52
2022/07/25 02:33:26;;;;;;;15.77;14.50;;;21.60;99.90;;;;;;4990206;28;20208;-52
2022/07/25 02:35:53;;;;;;;16.37;15.17;;;21.60;99.90;;;;;;4992545;28;20249;-52
2022/07/25 02:38:20;;;;;;;16.57;15.20;;;21.60;99.90;;;;;;4992887;28;20254;-53
2022/07/25 02:40:48;;;;;;;17.40;15.90;;;21.60;99.90;;;;;;4991057;28;20223;-52
2022/07/25 02:43:15;;;;;;;16.63;15.37;;;21.60;99.90;;;;;;4990565;28;20208;-52
2022/07/25 02:45:42;;;;;;;16.57;15.30;;;21.60;99.90;;;;;;4992304;28;20215;-52
2022/07/25 02:48:09;;;;;;;16.77;15.47;;;21.60;99.90;;;;;;4992893;28;20238;-52
2022/07/25 02:50:38;;;;;;;15.60;14.50;;;21.60;99.90;;;;;;4990826;28;20208;-52
2022/07/25 02:53:05;;;;;;;17.60;16.33;;;21.60;99.90;;;;;;4991322;28;20203;-53
2022/07/25 02:55:32;;;;;;;17.90;16.30;;;21.60;99.90;;;;;;4992124;28;20223;-52
2022/07/25 02:57:59;;;;;;;17.47;15.97;;;21.60;99.90;;;;;;4990973;28;20207;-52
2022/07/25 03:00:26;;;;;;;15.80;14.53;;;21.60;99.90;;;;;;4991418;28;20251;-52
2022/07/25 03:02:53;;;;;;;17.03;15.73;;;21.60;99.90;;;;;;4992524;28;20258;-52
2022/07/25 03:05:20;;;;;;;16.77;15.43;;;21.50;99.90;;;;;;4991547;28;20223;-53
2022/07/25 03:07:48;;;;;;;17.10;15.63;;;21.60;99.90;;;;;;4989412;28;20224;-52
2022/07/25 03:10:15;;;;;;;16.43;15.03;;;21.60;99.90;;;;;;4990996;28;20250;-52
2022/07/25 03:12:43;;;;;;;15.37;14.17;;;21.50;99.90;;;;;;4990185;28;20262;-52
2022/07/25 03:15:12;;;;;;;15.80;14.60;;;21.50;99.90;;;;;;4990372;28;20783;-52
2022/07/25 03:17:39;;;;;;;17.93;15.57;;;21.50;99.90;;;;;;4990363;28;20218;-51
2022/07/25 03:20:08;;;;;;;15.80;14.57;;;21.40;99.90;;;;;;4990149;28;20231;-51
2022/07/25 03:22:35;;;;;;;15.53;14.43;;;21.30;99.90;;;;;;4991477;28;20258;-50
2022/07/25 03:25:04;;;;;;;16.63;15.43;;;21.30;99.90;;;;;;4991777;28;20580;-51
2022/07/25 03:27:32;;;;;;;16.60;15.37;;;21.30;99.90;;;;;;4987605;28;20250;-50
2022/07/25 03:29:59;;;;;;;16.43;15.23;;;21.30;99.90;;;;;;4991063;28;20258;-51
2022/07/25 03:32:26;;;;;;;16.30;14.90;;;21.20;99.90;;;;;;4989804;28;20212;-51
2022/07/25 03:34:53;;;;;;;15.67;14.27;;;21.20;99.90;;;;;;4991067;28;20216;-51
2022/07/25 03:37:20;;;;;;;17.00;15.63;;;21.20;99.90;;;;;;4990902;28;20677;-51
2022/07/25 03:39:48;;;;;;;16.07;14.80;;;21.20;99.90;;;;;;4988257;28;20254;-51
2022/07/25 03:42:17;;;;;;;15.63;14.33;;;21.30;99.90;;;;;;4986695;28;20196;-51
2022/07/25 03:44:44;;;;;;;17.00;15.60;;;21.30;99.90;;;;;;4987725;28;20227;-51
2022/07/25 03:47:11;;;;;;;17.10;15.70;;;21.30;99.90;;;;;;4991782;28;20251;-51
2022/07/25 03:49:38;;;;;;;17.73;16.33;;;21.30;99.90;;;;;;4990548;28;20220;-50
2022/07/25 03:52:06;;;;;;;17.17;15.67;;;21.30;99.90;;;;;;4978536;28;20203;-51
2022/07/25 03:54:47;;;;;;;17.70;16.30;;;21.30;99.90;;;;;;4990581;28;20351;-51
2022/07/25 03:57:15;;;;;;;17.43;15.93;;;21.30;99.90;;;;;;4983761;28;20212;-51
2022/07/25 03:59:42;;;;;;;14.83;13.67;;;21.30;99.90;;;;;;4991718;28;20207;-50
2022/07/25 04:02:10;;;;;;;16.87;15.43;;;21.30;99.90;;;;;;4993549;28;20577;-51
2022/07/25 04:04:37;;;;;;;17.10;15.77;;;21.30;99.90;;;;;;4993737;28;20235;-50
2022/07/25 04:07:04;;;;;;;15.77;14.57;;;21.30;99.90;;;;;;4991681;28;20200;-51
2022/07/25 04:09:31;;;;;;;16.47;15.13;;;21.20;99.90;;;;;;4974595;28;20216;-50
2022/07/25 04:11:58;;;;;;;17.37;16.00;;;21.20;99.90;;;;;;4978250;28;20226;-50
2022/07/25 04:14:27;;;;;;;16.80;15.40;;;21.10;99.90;;;;;;4992317;28;20204;-50
2022/07/25 04:16:54;;;;;;;16.50;14.90;;;21.10;99.90;;;;;;4995042;28;20204;-51
2022/07/25 04:19:25;;;;;;;16.43;15.13;;;21.10;99.90;;;;;;4995260;28;20254;-51
2022/07/25 04:21:52;;;;;;;16.37;15.17;;;21.10;99.90;;;;;;4993295;28;20231;-51
2022/07/25 04:24:22;;;;;;;18.20;16.70;;;21.20;99.90;;;;;;4995282;28;20568;-51
2022/07/25 04:26:49;;;;;;;16.97;15.47;;;21.20;99.90;;;;;;4992409;28;20214;-51
2022/07/25 04:29:17;;;;;;;16.30;15.10;;;21.30;99.90;;;;;;4993891;28;20200;-50
2022/07/25 04:31:45;;;;;;;17.67;16.13;;;21.40;99.90;;;;;;4993751;28;20196;-51
2022/07/25 04:34:12;;;;;;;16.97;15.67;;;21.50;99.90;;;;;;4993081;28;20208;-51
2022/07/25 04:36:40;;;;;;;16.27;15.07;;;21.60;99.90;;;;;;4993351;28;20227;-51
2022/07/25 04:39:07;;;;;;;16.77;15.47;;;21.70;99.90;;;;;;4992220;28;20211;-51
2022/07/25 04:41:34;;;;;;;16.23;14.47;;;21.70;99.90;;;;;;4990993;28;20319;-51
2022/07/25 04:44:01;;;;;;;17.60;16.17;;;21.70;99.90;;;;;;4989180;28;20677;-51
2022/07/25 04:46:28;;;;;;;17.13;15.70;;;21.80;99.90;;;;;;4990772;28;20274;-51
2022/07/25 04:48:57;;;;;;;17.47;16.17;;;21.80;99.90;;;;;;4991383;28;20300;-50
2022/07/25 04:51:24;;;;;;;16.13;14.90;;;21.90;99.90;;;;;;4991385;28;20215;-52
2022/07/25 04:53:51;;;;;;;17.97;16.53;;;22.00;99.90;;;;;;4992229;28;20219;-50
2022/07/25 04:56:19;;;;;;;16.60;15.17;;;22.20;99.90;;;;;;4993670;28;20220;-50
2022/07/25 04:58:46;;;;;;;17.73;16.23;;;22.40;99.90;;;;;;4995497;28;20375;-53
2022/07/25 05:01:13;;;;;;;17.37;15.97;;;22.50;99.90;;;;;;4999583;28;20603;-51
2022/07/25 05:03:40;;;;;;;16.27;15.07;;;22.90;99.90;;;;;;4993984;28;20207;-52
2022/07/25 05:06:10;;;;;;;16.47;15.07;;;23.40;99.90;;;;;;4993646;28;20704;-53
2022/07/25 05:08:37;;;;;;;17.70;16.27;;;23.90;99.90;;;;;;4992851;28;20239;-52
2022/07/25 05:11:04;;;;;;;15.03;13.93;;;24.60;99.90;;;;;;4992674;28;20207;-52
2022/07/25 05:13:31;;;;;;;15.17;13.97;;;25.10;99.90;;;;;;4990887;28;20208;-52
2022/07/25 05:15:58;;;;;;;17.57;15.93;;;26.00;99.90;;;;;;4992234;28;20577;-51
2022/07/25 05:18:25;;;;;;;15.43;14.20;;;26.60;99.90;;;;;;4992754;28;20192;-51
2022/07/25 05:20:52;;;;;;;15.47;14.30;;;27.10;99.90;;;;;;4991615;28;20212;-52
2022/07/25 05:23:21;;;;;;;14.32;13.32;;;27.60;99.90;;;;;;4992413;28;20669;-52
2022/07/25 05:25:48;;;;;;;14.65;13.55;;;28.00;99.90;;;;;;4989632;28;20228;-51
2022/07/25 05:28:15;;;;;;;15.10;14.10;;;28.70;99.90;;;;;;4988422;28;20200;-52
2022/07/25 05:30:42;;;;;;;15.25;14.15;;;29.20;99.90;;;;;;4992476;28;20203;-52
2022/07/25 05:33:09;;;;;;;14.73;13.73;;;29.50;99.90;;;;;;4992327;28;20216;-52
2022/07/25 05:35:36;;;;;;;14.90;14.00;;;30.00;99.90;;;;;;4991328;28;20224;-52
2022/07/25 05:38:03;;;;;;;14.40;13.60;;;30.40;99.90;;;;;;4991905;28;20215;-52
2022/07/25 05:40:32;;;;;;;14.35;13.25;;;30.60;99.90;;;;;;4991170;28;20199;-52
2022/07/25 05:42:59;;;;;;;14.45;13.65;;;31.00;99.90;;;;;;4990351;28;20680;-52
2022/07/25 05:45:26;;;;;;;13.18;12.38;;;31.20;99.90;;;;;;4990495;28;20580;-52
2022/07/25 05:47:53;;;;;;;15.63;14.52;;;31.20;99.90;;;;;;4988532;28;20287;-52
2022/07/25 05:50:20;;;;;;;14.20;13.38;;;31.40;99.90;;;;;;4988005;28;20223;-52
2022/07/25 05:52:47;;;;;;;15.02;13.90;;;31.80;99.90;;;;;;4988977;28;20256;-52
2022/07/25 05:55:14;;;;;;;13.98;13.07;;;31.90;99.90;;;;;;4989475;28;20224;-52
2022/07/25 05:57:43;;;;;;;13.57;12.68;;;32.00;99.90;;;;;;4990600;28;20279;-52
2022/07/25 06:00:13;;;;;;;14.10;13.20;;;32.30;99.90;;;;;;4986212;28;20196;-52
2022/07/25 06:02:40;;;;;;;14.50;13.38;;;32.50;99.90;;;;;;4989725;28;20688;-52
2022/07/25 06:05:08;;;;;;;13.68;12.88;;;33.00;99.90;;;;;;4991949;28;20216;-52
2022/07/25 06:07:36;;;;;;;14.65;13.75;;;33.10;99.90;;;;;;4996416;28;20622;-52
2022/07/25 06:10:03;;;;;;;14.70;13.75;;;33.30;99.90;;;;;;4991113;28;20199;-52
2022/07/25 06:12:32;;;;;;;14.48;13.57;;;33.10;99.90;;;;;;4982394;28;20202;-52
2022/07/25 06:15:00;;;;;;;13.98;12.98;;;33.00;99.90;;;;;;4990796;28;20219;-52
2022/07/25 06:17:27;;;;;;;13.35;12.55;;;33.30;99.90;;;;;;4992121;28;20295;-52
2022/07/25 06:19:54;;;;;;;13.32;12.45;;;33.70;99.90;;;;;;4991573;28;20199;-52
2022/07/25 06:22:21;;;;;;;13.35;12.35;;;33.50;99.90;;;;;;4990428;28;20219;-52
2022/07/25 06:24:48;;;;;;;14.68;13.70;;;34.00;99.90;;;;;;4990959;28;20933;-52
2022/07/25 06:27:16;;;;;;;13.77;12.88;;;33.90;99.90;;;;;;4989205;28;20207;-52
2022/07/25 06:29:43;;;;;;;15.00;13.95;;;34.30;99.90;;;;;;4986168;28;20262;-52
2022/07/25 06:32:11;;;;;;;13.65;12.75;;;34.30;99.90;;;;;;4986849;28;20729;-52
2022/07/25 06:34:38;;;;;;;14.00;13.20;;;34.90;99.90;;;;;;4989595;28;20203;-52
2022/07/25 06:37:05;;;;;;;13.65;12.85;;;34.70;99.90;;;;;;4990769;28;20207;-52
2022/07/25 06:39:32;;;;;;;14.32;13.40;;;34.90;99.90;;;;;;4990553;28;20710;-52
2022/07/25 06:42:02;;;;;;;14.45;13.40;;;35.20;99.90;;;;;;4990654;28;20227;-52
2022/07/25 06:44:32;;;;;;;14.85;13.95;;;34.70;99.90;;;;;;4990729;28;20681;-52
2022/07/25 06:46:59;;;;;;;14.32;13.23;;;35.20;99.90;;;;;;4989021;28;20192;-52
2022/07/25 06:49:27;;;;;;;14.25;13.20;;;35.60;99.90;;;;;;4986235;28;20255;-52
2022/07/25 06:51:55;;;;;;;15.25;14.18;;;35.90;99.90;;;;;;4990531;28;20200;-52
2022/07/25 06:54:27;;;;;;;14.00;12.98;;;36.00;99.90;;;;;;4990804;28;20612;-52
2022/07/25 06:56:54;;;;;;;15.10;14.05;;;36.20;99.90;;;;;;4990634;28;20199;-52
2022/07/25 06:59:22;;;;;;;15.23;14.23;;;36.20;99.90;;;;;;4989802;28;20677;-52
2022/07/25 07:01:50;;;;;;;14.25;13.25;;;36.50;99.90;;;;;;4986515;28;20212;-52
2022/07/25 07:04:17;;;;;;;13.95;13.15;;;35.80;99.90;;;;;;4990609;28;20211;-52
2022/07/25 07:06:45;;;;;;;14.75;13.57;;;35.80;99.90;;;;;;4990481;28;20227;-52
2022/07/25 07:09:12;;;;;;;14.75;13.45;;;35.90;99.90;;;;;;4986744;28;20222;-52
2022/07/25 07:11:39;;;;;;;13.13;12.32;;;35.50;99.90;;;;;;4990597;28;20209;-53
2022/07/25 07:14:06;;;;;;;15.73;14.18;;;35.80;99.90;;;;;;4991945;28;20208;-52
2022/07/25 07:16:33;;;;;;;13.98;13.07;;;36.20;99.90;;;;;;4989740;28;20604;-52
2022/07/25 07:19:01;;;;;;;13.70;12.80;;;35.70;99.90;;;;;;4990085;28;20207;-53
2022/07/25 07:21:28;;;;;;;14.20;13.40;;;36.10;99.90;;;;;;4989572;28;20215;-52
2022/07/25 07:23:56;;;;;;;14.13;13.32;;;35.70;99.00;;;;;;4991579;28;20662;-53
2022/07/25 07:26:23;;;;;;;13.88;13.02;;;36.00;99.60;;;;;;4991197;28;20259;-52
2022/07/25 07:28:53;;;;;;;14.10;13.20;;;36.00;99.70;;;;;;4995485;28;20230;-52
2022/07/25 07:31:20;;;;;;;14.18;13.25;;;36.60;99.90;;;;;;4995215;28;20204;-52
2022/07/25 07:33:47;;;;;;;15.13;14.05;;;36.40;99.70;;;;;;4989426;28;20208;-52
2022/07/25 07:36:14;;;;;;;13.65;12.82;;;36.70;99.20;;;;;;4989492;28;20308;-52
2022/07/25 07:38:43;;;;;;;14.98;13.73;;;36.90;99.70;;;;;;4988316;28;20215;-52
2022/07/25 07:41:12;;;;;;;14.32;13.48;;;37.10;99.20;;;;;;4987580;28;20231;-52
2022/07/25 07:43:39;;;;;;;13.63;12.52;;;37.30;97.00;;;;;;4992274;28;20254;-57
2022/07/25 07:46:06;;;;;;;13.85;12.82;;;37.20;97.00;;;;;;4993129;28;20235;-52
2022/07/25 07:48:33;;;;;;;13.38;12.38;;;37.10;97.20;;;;;;4991559;28;20317;-52
2022/07/25 07:51:01;;;;;;;14.00;12.63;;;36.60;97.60;;;;;;4992001;28;20681;-52
2022/07/25 07:56:12;;;;;;;14.40;12.32;;;36.10;98.00;;;;;;4992946;28;20230;-52
2022/07/25 07:58:39;;;;;;;14.23;13.13;;;36.50;96.30;;;;;;4994134;28;20211;-52
2022/07/25 08:01:06;;;;;;;13.77;12.85;;;37.10;96.90;;;;;;4994624;28;20206;-52
2022/07/25 08:03:34;;;;;;;12.55;11.45;;;37.30;96.20;;;;;;4994977;28;20673;-52
2022/07/25 08:06:01;;;;;;;13.93;12.90;;;37.50;95.90;;;;;;4992388;28;20224;-53
2022/07/25 08:08:29;;;;;;;13.52;12.73;;;37.60;96.90;;;;;;4993904;28;20218;-53
2022/07/25 08:10:57;;;;;;;13.63;12.57;;;37.90;95.90;;;;;;4987805;28;20673;-53
2022/07/25 08:13:30;;;;;;;13.25;12.55;;;37.80;94.30;;;;;;4993774;28;20701;-52
2022/07/25 08:15:59;;;;;;;13.73;12.93;;;38.20;95.80;;;;;;4993523;28;20625;-53
2022/07/25 08:18:28;;;;;;;14.75;13.68;;;38.60;96.30;;;;;;4990901;28;20202;-53
2022/07/25 08:20:56;;;;;;;14.13;13.15;;;38.60;95.20;;;;;;4994327;28;20204;-53
2022/07/25 08:23:26;;;;;;;14.52;13.52;;;38.70;95.60;;;;;;4994476;28;20264;-52
2022/07/25 08:25:53;;;;;;;13.38;12.57;;;38.90;94.90;;;;;;4993590;28;20226;-52
2022/07/25 08:28:21;;;;;;;14.18;13.35;;;38.80;95.20;;;;;;4994348;28;20207;-52
2022/07/25 08:30:49;;;;;;;15.65;14.25;;;38.70;95.30;;;;;;4992035;28;20696;-52
2022/07/25 08:33:16;;;;;;;13.57;12.77;;;38.50;94.80;;;;;;4991800;28;20192;-53
2022/07/25 08:35:47;;;;;;;14.80;13.80;;;38.50;95.70;;;;;;4992050;28;20227;-53
2022/07/25 08:38:14;;;;;;;13.45;12.55;;;38.70;95.20;;;;;;4990593;28;20295;-52
2022/07/25 08:40:41;;;;;;;12.15;11.65;;;38.60;93.80;;;;;;4993238;28;20207;-52
2022/07/25 08:43:12;;;;;;;14.00;13.00;;;38.70;95.40;;;;;;4993168;28;20696;-53
2022/07/25 08:45:44;;;;;;;15.02;13.77;;;38.70;94.40;;;;;;4989978;28;20703;-53
2022/07/25 08:48:13;;;;;;;13.93;13.02;;;38.90;95.10;;;;;;4992892;28;20287;-53
2022/07/25 08:50:41;;;;;;;16.13;14.63;;;38.70;92.60;;;;;;4992743;28;20223;-53
2022/07/25 08:53:08;;;;;;;13.80;12.95;;;39.10;92.40;;;;;;4993306;28;20250;-52
2022/07/25 08:55:35;;;;;;;14.52;13.63;;;39.10;95.50;;;;;;4991122;28;20228;-53
2022/07/25 08:58:02;;;;;;;14.60;13.60;;;39.20;95.40;;;;;;4991935;28;20203;-53
2022/07/25 09:00:30;;;;;;;13.88;13.05;;;39.20;92.90;;;;;;4989035;28;20204;-52
2022/07/25 09:02:59;;;;;;;14.32;13.43;;;39.20;92.60;;;;;;4992248;28;20227;-53
2022/07/25 09:05:29;;;;;;;14.18;13.27;;;39.10;94.10;;;;;;4991313;28;20779;-53
2022/07/25 09:07:56;;;;;;;14.35;13.45;;;38.30;92.10;;;;;;4991507;28;20204;-52
2022/07/25 09:10:26;;;;;;;13.63;12.93;;;38.50;94.10;;;;;;4992295;28;20192;-53
2022/07/25 09:12:54;;;;;;;13.73;13.00;;;38.70;93.60;;;;;;4992514;28;20686;-53
2022/07/25 09:15:26;;;;;;;13.85;13.00;;;38.60;92.60;;;;;;4987357;28;20235;-52
2022/07/25 09:17:54;;;;;;;15.05;14.13;;;38.60;93.90;;;;;;4992260;28;20211;-53
2022/07/25 09:20:21;;;;;;;14.93;14.00;;;38.90;93.40;;;;;;4992255;28;20274;-52
2022/07/25 09:22:50;;;;;;;14.63;13.75;;;39.00;94.80;;;;;;4992258;28;20223;-53
2022/07/25 09:25:25;;;;;;;15.43;14.18;;;39.10;91.00;;;;;;4991351;28;20227;-53
2022/07/25 09:27:52;;;;;;;15.13;13.95;;;38.40;91.90;;;;;;4990366;28;20676;-52
2022/07/25 09:30:20;;;;;;;14.60;13.80;;;38.60;91.60;;;;;;4990926;28;20203;-53
2022/07/25 09:32:47;;;;;;;14.85;13.52;;;38.80;93.80;;;;;;4991964;28;20200;-53
2022/07/25 09:35:14;;;;;;;15.40;14.48;;;38.90;92.10;;;;;;4990561;28;20709;-53
2022/07/25 09:37:41;;;;;;;16.80;15.70;;;38.80;91.70;;;;;;4991632;28;20196;-53
2022/07/25 09:40:15;;;;;;;15.13;13.95;;;38.30;92.50;;;;;;4991540;28;20284;-53
2022/07/25 09:42:45;;;;;;;13.52;12.82;;;38.30;93.70;;;;;;4989530;28;20538;-52
2022/07/25 09:45:14;;;;;;;14.98;13.77;;;38.00;90.60;;;;;;4991405;28;20596;-53
2022/07/25 09:47:52;;;;;;;16.00;15.10;;;37.70;93.50;;;;;;4991564;28;20203;-53
2022/07/25 09:50:20;;;;;;;16.88;15.75;;;37.50;96.90;;;;;;4990175;28;20208;-52
2022/07/25 09:52:47;;;;;;;16.30;15.30;;;37.70;98.20;;;;;;4990658;28;20596;-53
2022/07/25 09:55:16;;;;;;;17.52;16.23;;;38.00;97.30;;;;;;4990241;28;20755;-53
2022/07/25 09:57:45;;;;;;;17.40;16.15;;;37.80;97.60;;;;;;4991651;28;20200;-52
2022/07/25 10:00:15;;;;;;;16.77;15.55;;;37.50;99.10;;;;;;4989502;28;20200;-52
2022/07/25 10:02:48;;;;;;;16.30;15.13;;;37.80;98.20;;;;;;4990742;28;20327;-52
2022/07/25 10:05:20;;;;;;;15.52;14.50;;;37.20;97.20;;;;;;4990854;28;21048;-52
2022/07/25 10:07:50;;;;;;;16.13;15.07;;;36.70;98.90;;;;;;4987766;28;20208;-52
2022/07/25 10:10:30;;;;;;;16.95;15.60;;;36.80;99.90;;;;;;4991183;28;20205;-53
2022/07/25 10:13:02;;;;;;;17.50;16.08;;;37.00;98.40;;;;;;4990704;28;20206;-53
2022/07/25 10:15:40;;;;;;;15.73;14.52;;;37.50;98.70;;;;;;4990595;28;20228;-52
2022/07/25 10:18:08;;;;;;;15.05;14.07;;;38.40;94.50;;;;;;4991527;28;20282;-53
2022/07/25 10:20:35;;;;;;;14.25;13.35;;;38.70;94.40;;;;;;4987494;28;20239;-53
2022/07/25 10:23:03;;;;;;;13.85;12.95;;;39.00;93.10;;;;;;4992386;28;20211;-52
2022/07/25 10:25:32;;;;;;;12.77;12.10;;;38.60;92.70;;;;;;4990414;28;20354;-52
2022/07/25 10:28:07;;;;;;;14.50;13.60;;;39.00;94.10;;;;;;4990753;28;20207;-52
2022/07/25 10:30:36;;;;;;;13.75;12.95;;;39.20;93.10;;;;;;4991018;28;20195;-52
2022/07/25 10:33:05;;;;;;;14.20;13.30;;;39.20;95.70;;;;;;4989757;28;20619;-53
2022/07/25 10:35:33;;;;;;;14.20;13.20;;;38.60;92.10;;;;;;4990459;28;20272;-52
2022/07/25 10:38:03;;;;;;;13.13;12.32;;;38.10;92.30;;;;;;4991833;28;20207;-52
2022/07/25 10:40:36;;;;;;;12.30;11.60;;;38.50;91.10;;;;;;4992074;28;20258;-52
2022/07/25 10:43:08;;;;;;;13.50;12.65;;;38.90;91.20;;;;;;4987083;28;20223;-52
2022/07/25 10:45:42;;;;;;;12.50;11.55;;;38.90;90.80;;;;;;4987672;28;20215;-53
2022/07/25 10:48:12;;;;;;;12.23;11.55;;;38.90;88.60;;;;;;4987853;28;20269;-52
2022/07/25 10:50:56;;;;;;;12.57;11.80;;;38.60;91.50;;;;;;4989071;28;20216;-52
2022/07/25 10:53:32;;;;;;;13.55;12.70;;;38.50;90.00;;;;;;4991051;28;20203;-52
2022/07/25 10:56:05;;;;;;;12.25;11.55;;;38.30;90.30;;;;;;4991529;28;20219;-52
2022/07/25 10:58:47;;;;;;;12.40;11.65;;;38.00;90.10;;;;;;4991950;28;20208;-53
2022/07/25 11:01:15;;;;;;;11.98;11.27;;;37.70;91.20;;;;;;4991639;28;20211;-52
2022/07/25 11:03:44;;;;;;;12.02;11.18;;;37.60;90.00;;;;;;4990681;28;20227;-52
2022/07/25 11:06:13;;;;;;;12.90;11.85;;;37.10;91.10;;;;;;4989736;28;20254;-52
2022/07/25 11:08:42;;;;;;;13.05;12.38;;;36.90;91.70;;;;;;4989532;28;20223;-53
2022/07/25 11:11:11;;;;;;;12.75;11.93;;;36.70;91.50;;;;;;4990244;28;20207;-52
2022/07/25 11:13:39;;;;;;;13.57;12.75;;;36.50;92.20;;;;;;4989358;28;20231;-52
2022/07/25 11:16:07;;;;;;;13.43;12.55;;;36.20;91.80;;;;;;4988619;28;20227;-53
2022/07/25 11:18:36;;;;;;;13.43;12.57;;;36.00;92.40;;;;;;4989923;28;20214;-52
2022/07/25 11:21:05;;;;;;;12.60;11.90;;;35.80;92.80;;;;;;4994201;28;20583;-52
2022/07/25 11:23:32;;;;;;;13.95;12.95;;;35.70;93.30;;;;;;4990495;28;20224;-52
2022/07/25 11:26:07;;;;;;;13.60;12.70;;;35.90;93.40;;;;;;4993259;28;20223;-52
2022/07/25 11:28:43;;;;;;;14.60;13.73;;;35.60;93.40;;;;;;4990435;28;20199;-53
2022/07/25 11:31:11;;;;;;;15.10;13.85;;;35.50;94.60;;;;;;4994205;28;20204;-52
2022/07/25 11:33:39;;;;;;;15.05;14.05;;;35.30;94.20;;;;;;4994202;28;20197;-52
2022/07/25 11:36:09;;;;;;;13.63;12.82;;;35.30;93.30;;;;;;4992993;28;20343;-52
2022/07/25 11:38:38;;;;;;;14.45;13.50;;;35.10;93.70;;;;;;4993525;28;20200;-52
2022/07/25 11:41:05;;;;;;;15.27;13.90;;;34.90;94.00;;;;;;4993803;28;20250;-52
2022/07/25 11:43:32;;;;;;;13.35;12.40;;;34.80;94.20;;;;;;4994208;28;20232;-52
2022/07/25 11:46:03;;;;;;;12.70;12.00;;;34.60;94.50;;;;;;4993165;28;20223;-52
2022/07/25 11:48:35;;;;;;;14.07;13.07;;;34.40;95.20;;;;;;4991157;28;20200;-52
2022/07/25 11:51:14;;;;;;;14.52;13.38;;;34.30;94.50;;;;;;4993405;28;20216;-52
2022/07/25 11:53:43;;;;;;;13.63;12.70;;;34.30;95.50;;;;;;4993719;28;20631;-52
2022/07/25 11:56:15;;;;;;;15.13;13.82;;;34.10;94.90;;;;;;4992643;28;20290;-52
2022/07/25 11:58:43;;;;;;;14.35;13.27;;;34.00;95.10;;;;;;4993155;28;20243;-52
2022/07/25 12:01:16;;;;;;;14.13;13.02;;;33.90;95.00;;;;;;4993517;28;20204;-52
2022/07/25 12:03:44;;;;;;;14.13;13.10;;;33.90;94.30;;;;;;4993763;28;20274;-52
2022/07/25 12:06:12;;;;;;;13.77;12.88;;;33.90;95.50;;;;;;4992389;28;20243;-52
2022/07/25 12:08:41;;;;;;;13.75;12.73;;;33.80;94.60;;;;;;4993437;28;20202;-52
2022/07/25 12:11:20;;;;;;;13.50;12.38;;;33.70;95.30;;;;;;4993320;28;20199;-52
2022/07/25 12:13:47;;;;;;;14.20;12.60;;;33.50;95.10;;;;;;4993155;28;20253;-52
2022/07/25 12:16:16;;;;;;;13.45;12.52;;;33.70;95.90;;;;;;4991429;28;20247;-52
2022/07/25 12:18:43;;;;;;;12.98;12.18;;;33.80;95.80;;;;;;4993356;28;20661;-52
2022/07/25 12:21:10;;;;;;;12.93;12.02;;;33.90;94.90;;;;;;4993001;28;20294;-52
2022/07/25 12:23:40;;;;;;;14.25;13.15;;;33.90;95.10;;;;;;4994002;28;20220;-52
2022/07/25 12:26:09;;;;;;;13.25;12.48;;;33.80;95.00;;;;;;4992432;28;20230;-52
2022/07/25 12:28:36;;;;;;;13.70;12.80;;;33.90;95.00;;;;;;4992877;28;20382;-52
2022/07/25 12:31:03;;;;;;;16.02;11.68;;;33.90;94.70;;;;;;4991999;28;20270;-52
2022/07/25 12:33:32;;;;;;;12.15;11.52;;;33.80;94.60;;;;;;4992855;28;20619;-52
2022/07/25 12:35:59;;;;;;;12.15;11.35;;;33.90;95.30;;;;;;4992380;28;20215;-52
2022/07/25 12:38:26;;;;;;;11.90;11.02;;;33.90;95.30;;;;;;4991975;28;20199;-52
2022/07/25 12:40:54;;;;;;;11.95;10.98;;;33.80;97.00;;;;;;4992436;28;21105;-52
2022/07/25 12:43:21;;;;;;;11.68;11.05;;;33.90;96.10;;;;;;4992545;28;20211;-52
2022/07/25 12:45:48;;;;;;;10.88;10.27;;;34.00;94.70;;;;;;4992368;28;20224;-51
2022/07/25 12:48:15;;;;;;;11.35;10.65;;;33.90;92.70;;;;;;4992027;28;20200;-52
2022/07/25 12:50:44;;;;;;;10.20;9.70;;;33.70;95.60;;;;;;4992547;28;20282;-51
2022/07/25 12:53:13;;;;;;;11.38;10.77;;;33.70;95.50;;;;;;4991949;28;20243;-51
2022/07/25 12:55:40;;;;;;;11.07;10.35;;;33.80;96.50;;;;;;4992099;28;20230;-52
2022/07/25 12:58:08;;;;;;;10.50;9.90;;;33.70;93.50;;;;;;4992068;28;20291;-52
2022/07/25 13:00:36;;;;;;;10.95;10.35;;;33.50;93.80;;;;;;4992588;28;20228;-52
2022/07/25 13:03:03;;;;;;;10.80;10.00;;;33.50;93.50;;;;;;4992206;28;20274;-52
2022/07/25 13:05:30;;;;;;;10.55;9.85;;;33.50;94.10;;;;;;4987325;28;20227;-51
2022/07/25 13:07:58;;;;;;;9.73;9.23;;;33.50;93.20;;;;;;4992221;28;20716;-51
2022/07/25 13:10:25;;;;;;;10.35;9.50;;;33.40;93.30;;;;;;4991066;28;20207;-52
2022/07/25 13:12:52;;;;;;;10.70;9.93;;;33.40;93.70;;;;;;4991948;28;20283;-52